Time;durP1;ratioP1;P1;durP2;ratioP2;P2;SDS_P1;SDS_P2;PMS_P1;PMS_P2;Temp;Humidity;BMP_temperature;BMP_pressure;BME280_temperature;BME280_humidity;BME280_pressure;Samples;Min_cycle;Max_cycle;Signal;HPM_P1;HPM_P2
2023/08/02 00:02:20;;;;;;;12.18;5.90;;;;;;;;;;5031633;28;20444;-71
2023/08/02 00:04:45;;;;;;;9.63;5.40;;;;;;;;;;5014081;28;20189;-71
2023/08/02 00:07:11;;;;;;;6.68;5.20;;;;;;;;;;5032074;28;20502;-71
2023/08/02 00:09:37;;;;;;;5.90;4.80;;;;;;;;;;5031813;28;20029;-71
2023/08/02 00:12:05;;;;;;;7.25;5.10;;;;;;;;;;5031780;28;20025;-71
2023/08/02 00:14:31;;;;;;;7.55;5.13;;;;;;;;;;5030245;28;20025;-70
2023/08/02 00:16:57;;;;;;;7.05;5.57;;;;;;;;;;5031437;28;20495;-71
2023/08/02 00:19:23;;;;;;;11.93;5.43;;;;;;;;;;5030636;28;20074;-71
2023/08/02 00:21:49;;;;;;;9.88;5.97;;;;;;;;;;5031686;28;20514;-71
2023/08/02 00:24:15;;;;;;;8.02;5.70;;;;;;;;;;5030737;28;20029;-71
2023/08/02 00:26:41;;;;;;;6.57;5.10;;;;;;;;;;5031086;28;20567;-68
2023/08/02 00:29:07;;;;;;;6.07;5.43;;;;;;;;;;5020249;28;20182;-71
2023/08/02 00:31:33;;;;;;;7.90;6.18;;;;;;;;;;5051644;28;20540;-71
2023/08/02 00:33:59;;;;;;;9.13;5.18;;;;;;;;;;5066424;28;20036;-71
2023/08/02 00:36:25;;;;;;;6.25;5.05;;;;;;;;;;5051571;28;20037;-71
2023/08/02 00:38:50;;;;;;;9.88;5.75;;;;;;;;;;5050371;28;20060;-71
2023/08/02 00:41:20;;;;;;;7.90;6.47;;;;;;;;;;5047929;28;20063;-72
2023/08/02 00:43:47;;;;;;;11.30;7.00;;;;;;;;;;5049523;28;20530;-72
2023/08/02 00:46:16;;;;;;;9.15;6.93;;;;;;;;;;5036122;28;20558;-71
2023/08/02 00:48:43;;;;;;;9.93;5.85;;;;;;;;;;5055062;28;20478;-71
2023/08/02 00:51:15;;;;;;;9.93;6.03;;;;;;;;;;5053780;28;20502;-71
2023/08/02 00:53:43;;;;;;;7.50;6.05;;;;;;;;;;5054865;28;20033;-72
2023/08/02 00:56:10;;;;;;;7.15;5.85;;;;;;;;;;5053984;28;20478;-71
2023/08/02 00:58:36;;;;;;;13.55;5.97;;;;;;;;;;5055379;28;20575;-71
2023/08/02 01:01:07;;;;;;;11.85;6.10;;;;;;;;;;5054906;28;20425;-71
2023/08/02 01:03:44;;;;;;;12.38;5.82;;;;;;;;;;5053266;28;20569;-71
2023/08/02 01:06:31;;;;;;;10.75;6.78;;;;;;;;;;5054975;28;20463;-71
2023/08/02 01:09:07;;;;;;;11.52;5.85;;;;;;;;;;5054974;28;20469;-71
2023/08/02 01:11:48;;;;;;;8.98;6.03;;;;;;;;;;5053516;28;20498;-71
2023/08/02 01:14:19;;;;;;;10.15;6.00;;;;;;;;;;5054324;28;20552;-71
2023/08/02 01:16:46;;;;;;;11.05;5.70;;;;;;;;;;5053435;28;20498;-71
2023/08/02 01:19:12;;;;;;;14.55;6.38;;;;;;;;;;5053316;28;20571;-71
2023/08/02 01:21:38;;;;;;;9.68;6.43;;;;;;;;;;5054521;28;20487;-71
2023/08/02 01:24:06;;;;;;;8.23;6.00;;;;;;;;;;5054001;28;20508;-71
2023/08/02 01:26:35;;;;;;;12.35;6.47;;;;;;;;;;5054519;28;20041;-71
2023/08/02 01:29:05;;;;;;;9.25;6.63;;;;;;;;;;5053019;28;20486;-71
2023/08/02 01:31:34;;;;;;;15.60;7.00;;;;;;;;;;5053166;28;20541;-71
2023/08/02 01:34:01;;;;;;;10.98;6.80;;;;;;;;;;5053993;28;20432;-71
2023/08/02 01:36:27;;;;;;;11.82;6.63;;;;;;;;;;5052883;28;20037;-71
2023/08/02 01:38:56;;;;;;;15.32;6.80;;;;;;;;;;5053223;28;20398;-71
2023/08/02 01:41:22;;;;;;;10.95;6.45;;;;;;;;;;5069400;28;20044;-71
2023/08/02 01:43:47;;;;;;;13.00;6.88;;;;;;;;;;5052459;28;20036;-71
2023/08/02 01:46:13;;;;;;;8.93;7.10;;;;;;;;;;5053497;28;20041;-71
2023/08/02 01:48:39;;;;;;;9.30;8.02;;;;;;;;;;5048342;28;20041;-71
2023/08/02 01:51:05;;;;;;;10.32;7.57;;;;;;;;;;5050656;28;20036;-71
2023/08/02 01:53:31;;;;;;;10.40;7.63;;;;;;;;;;5052894;28;20032;-71
2023/08/02 01:55:58;;;;;;;10.27;7.43;;;;;;;;;;5051282;28;20045;-71
2023/08/02 01:58:25;;;;;;;17.20;7.45;;;;;;;;;;5069824;28;20052;-71
2023/08/02 02:00:51;;;;;;;9.10;6.15;;;;;;;;;;5053766;28;20063;-71
2023/08/02 02:03:16;;;;;;;10.88;6.93;;;;;;;;;;5053100;28;20565;-71
2023/08/02 02:05:54;;;;;;;11.88;6.57;;;;;;;;;;5052719;28;20441;-72
2023/08/02 02:08:20;;;;;;;9.13;6.88;;;;;;;;;;5054439;28;20068;-71
2023/08/02 02:10:50;;;;;;;9.23;7.03;;;;;;;;;;5053137;28;20372;-71
2023/08/02 02:13:17;;;;;;;13.35;7.35;;;;;;;;;;5052858;28;20033;-71
2023/08/02 02:15:43;;;;;;;13.15;7.10;;;;;;;;;;5053502;28;20113;-71
2023/08/02 02:18:09;;;;;;;9.57;6.68;;;;;;;;;;5052570;28;20532;-72
2023/08/02 02:20:35;;;;;;;12.27;7.57;;;;;;;;;;5052016;28;20032;-72
2023/08/02 02:23:02;;;;;;;14.90;7.45;;;;;;;;;;5053438;28;20080;-71
2023/08/02 02:25:27;;;;;;;9.50;6.72;;;;;;;;;;5053399;28;20028;-71
2023/08/02 02:27:53;;;;;;;14.77;7.30;;;;;;;;;;5053249;28;20044;-71
2023/08/02 02:30:19;;;;;;;14.85;7.35;;;;;;;;;;5051791;28;20493;-71
2023/08/02 02:32:45;;;;;;;12.05;7.45;;;;;;;;;;5051539;28;20032;-71
2023/08/02 02:35:15;;;;;;;21.50;7.78;;;;;;;;;;5051449;28;20025;-71
2023/08/02 02:37:41;;;;;;;10.20;7.97;;;;;;;;;;5053269;28;20052;-71
2023/08/02 02:40:08;;;;;;;12.90;7.90;;;;;;;;;;5051658;28;20017;-71
2023/08/02 02:42:38;;;;;;;9.20;6.70;;;;;;;;;;5052656;28;20037;-71
2023/08/02 02:45:05;;;;;;;12.13;7.30;;;;;;;;;;5051144;28;20025;-71
2023/08/02 02:47:31;;;;;;;7.47;6.30;;;;;;;;;;5051743;28;20041;-73
2023/08/02 02:49:57;;;;;;;9.57;7.28;;;;;;;;;;5051775;28;20395;-72
2023/08/02 02:52:23;;;;;;;11.35;8.00;;;;;;;;;;5051268;28;20040;-72
2023/08/02 02:54:49;;;;;;;13.73;7.95;;;;;;;;;;5053559;28;20019;-72
2023/08/02 02:57:16;;;;;;;10.60;7.97;;;;;;;;;;5072404;28;20038;-72
2023/08/02 02:59:43;;;;;;;9.88;8.15;;;;;;;;;;5070176;28;20033;-72
2023/08/02 03:02:09;;;;;;;12.98;7.70;;;;;;;;;;5070145;28;20029;-72
2023/08/02 03:04:35;;;;;;;11.68;7.07;;;;;;;;;;5070022;28;20024;-71
2023/08/02 03:07:01;;;;;;;9.23;7.00;;;;;;;;;;5050166;28;20094;-71
2023/08/02 03:09:28;;;;;;;13.10;7.38;;;;;;;;;;5049757;28;20029;-71
2023/08/02 03:11:54;;;;;;;12.40;7.90;;;;;;;;;;5050226;28;20033;-71
2023/08/02 03:14:20;;;;;;;10.63;8.10;;;;;;;;;;5049681;28;20074;-71
2023/08/02 03:16:46;;;;;;;11.68;7.97;;;;;;;;;;5050243;28;20044;-71
2023/08/02 03:19:12;;;;;;;13.23;8.20;;;;;;;;;;5049952;28;20028;-71
2023/08/02 03:21:39;;;;;;;9.82;7.60;;;;;;;;;;5050297;28;20041;-72
2023/08/02 03:24:06;;;;;;;9.38;7.45;;;;;;;;;;5049879;28;20095;-73
2023/08/02 03:26:32;;;;;;;13.80;9.35;;;;;;;;;;5051989;28;20072;-72
2023/08/02 03:28:58;;;;;;;18.90;13.25;;;;;;;;;;5052417;28;20017;-71
2023/08/02 03:31:24;;;;;;;23.73;17.85;;;;;;;;;;5051119;28;20036;-70
2023/08/02 03:33:50;;;;;;;25.67;18.15;;;;;;;;;;5049477;28;20406;-72
2023/08/02 03:36:17;;;;;;;20.52;15.10;;;;;;;;;;5049831;28;20029;-71
2023/08/02 03:38:43;;;;;;;18.98;15.52;;;;;;;;;;5051327;28;20032;-72
2023/08/02 03:41:09;;;;;;;18.83;14.10;;;;;;;;;;5050283;28;20556;-72
2023/08/02 03:43:35;;;;;;;19.92;14.35;;;;;;;;;;5050189;28;20029;-71
2023/08/02 03:46:02;;;;;;;24.30;15.82;;;;;;;;;;5060167;28;20028;-72
2023/08/02 03:48:28;;;;;;;19.45;15.43;;;;;;;;;;5070153;28;20023;-72
2023/08/02 03:50:56;;;;;;;19.60;14.90;;;;;;;;;;5060119;28;20051;-71
2023/08/02 03:53:23;;;;;;;19.23;12.77;;;;;;;;;;5050114;28;20047;-72
2023/08/02 03:55:49;;;;;;;17.67;11.85;;;;;;;;;;5052204;28;20107;-72
2023/08/02 03:58:15;;;;;;;23.40;13.27;;;;;;;;;;5050790;28;20159;-72
2023/08/02 04:00:41;;;;;;;20.35;11.80;;;;;;;;;;5051893;28;20036;-72
2023/08/02 04:03:07;;;;;;;20.55;11.00;;;;;;;;;;5052238;28;20029;-72
2023/08/02 04:05:33;;;;;;;12.30;8.50;;;;;;;;;;5051092;28;20037;-72
2023/08/02 04:07:59;;;;;;;13.00;8.85;;;;;;;;;;5050883;28;20021;-72
2023/08/02 04:10:25;;;;;;;15.43;9.07;;;;;;;;;;5051892;28;20100;-72
2023/08/02 04:12:51;;;;;;;12.68;9.05;;;;;;;;;;5052025;28;20094;-72
2023/08/02 04:15:18;;;;;;;12.00;8.10;;;;;;;;;;5050676;28;20131;-71
2023/08/02 04:17:43;;;;;;;18.63;8.40;;;;;;;;;;5053877;28;20051;-72
2023/08/02 04:20:11;;;;;;;15.15;9.18;;;;;;;;;;5055265;28;20036;-71
2023/08/02 04:22:36;;;;;;;14.15;8.38;;;;;;;;;;5056391;28;20026;-71
2023/08/02 04:25:03;;;;;;;12.25;6.72;;;;;;;;;;5055478;28;20144;-71
2023/08/02 04:27:29;;;;;;;12.05;6.80;;;;;;;;;;5055531;28;20017;-71
2023/08/02 04:29:55;;;;;;;11.13;6.70;;;;;;;;;;5054811;28;20112;-71
2023/08/02 04:32:21;;;;;;;9.23;6.03;;;;;;;;;;5056001;28;20113;-71
2023/08/02 04:34:47;;;;;;;9.00;6.20;;;;;;;;;;5056408;28;20040;-71
2023/08/02 04:37:13;;;;;;;13.73;6.88;;;;;;;;;;5055282;28;20033;-71
2023/08/02 04:39:39;;;;;;;15.55;7.45;;;;;;;;;;5055522;28;20033;-70
2023/08/02 04:42:05;;;;;;;11.20;6.72;;;;;;;;;;5055243;28;20025;-70
2023/08/02 04:44:31;;;;;;;15.93;7.03;;;;;;;;;;5054913;28;20040;-70
2023/08/02 04:46:57;;;;;;;12.13;7.47;;;;;;;;;;5055279;28;20025;-70
2023/08/02 04:49:23;;;;;;;14.40;6.15;;;;;;;;;;5055455;28;20112;-70
2023/08/02 04:51:49;;;;;;;8.77;6.80;;;;;;;;;;5055340;28;20040;-70
2023/08/02 04:54:15;;;;;;;12.65;5.90;;;;;;;;;;5055244;28;20032;-70
2023/08/02 04:56:41;;;;;;;10.80;6.43;;;;;;;;;;5053228;28;20032;-70
2023/08/02 04:59:07;;;;;;;10.45;6.15;;;;;;;;;;5054721;28;20143;-72
2023/08/02 05:01:33;;;;;;;10.25;5.82;;;;;;;;;;5055053;28;20040;-71
2023/08/02 05:03:59;;;;;;;10.05;6.18;;;;;;;;;;5055104;28;20033;-71
2023/08/02 05:06:24;;;;;;;9.70;5.97;;;;;;;;;;5051677;28;20032;-70
2023/08/02 05:08:50;;;;;;;9.98;6.63;;;;;;;;;;5053099;28;20037;-69
2023/08/02 05:11:16;;;;;;;12.75;6.35;;;;;;;;;;5059240;28;20028;-70
2023/08/02 05:13:42;;;;;;;13.52;6.75;;;;;;;;;;5053165;28;20029;-71
2023/08/02 05:16:12;;;;;;;11.18;6.22;;;;;;;;;;5051982;28;20048;-70
2023/08/02 05:18:39;;;;;;;11.48;5.78;;;;;;;;;;5052598;28;20104;-69
2023/08/02 05:21:15;;;;;;;9.75;5.63;;;;;;;;;;5052330;28;20490;-70
2023/08/02 05:23:42;;;;;;;12.95;5.85;;;;;;;;;;5049218;28;20061;-70
2023/08/02 05:26:08;;;;;;;8.60;5.47;;;;;;;;;;5051317;28;20493;-70
2023/08/02 05:28:35;;;;;;;14.57;5.97;;;;;;;;;;5053754;28;20040;-70
2023/08/02 05:31:01;;;;;;;12.82;6.60;;;;;;;;;;5052332;28;20022;-70
2023/08/02 05:33:27;;;;;;;10.52;5.43;;;;;;;;;;5053829;28;20052;-70
2023/08/02 05:35:53;;;;;;;11.88;5.45;;;;;;;;;;5054046;28;20024;-70
2023/08/02 05:38:20;;;;;;;11.60;5.95;;;;;;;;;;5053727;28;20097;-70
2023/08/02 05:40:46;;;;;;;8.82;5.82;;;;;;;;;;5053347;28;20033;-70
2023/08/02 05:43:12;;;;;;;11.50;7.00;;;;;;;;;;5053531;28;20060;-69
2023/08/02 05:45:38;;;;;;;14.05;7.93;;;;;;;;;;5053773;28;20024;-70
2023/08/02 05:48:04;;;;;;;13.18;6.57;;;;;;;;;;5053575;28;20041;-70
2023/08/02 05:50:31;;;;;;;6.53;4.90;;;;;;;;;;5053284;28;20093;-70
2023/08/02 05:52:57;;;;;;;11.95;6.05;;;;;;;;;;5052534;28;20064;-70
2023/08/02 05:55:23;;;;;;;13.88;5.75;;;;;;;;;;5053773;28;20498;-70
2023/08/02 05:57:49;;;;;;;8.20;6.13;;;;;;;;;;5045823;28;20056;-70
2023/08/02 06:00:15;;;;;;;11.40;6.15;;;;;;;;;;5053594;28;20260;-70
2023/08/02 06:02:41;;;;;;;11.50;6.38;;;;;;;;;;5053074;28;20372;-70
2023/08/02 06:05:08;;;;;;;7.70;5.65;;;;;;;;;;5052759;28;20055;-70
2023/08/02 06:07:34;;;;;;;8.70;5.57;;;;;;;;;;5054049;28;20371;-70
2023/08/02 06:10:00;;;;;;;9.25;5.10;;;;;;;;;;5053610;28;20100;-70
2023/08/02 06:12:26;;;;;;;11.23;5.80;;;;;;;;;;5053364;28;20033;-70
2023/08/02 06:14:52;;;;;;;7.43;5.35;;;;;;;;;;5054068;28;20348;-70
2023/08/02 06:17:18;;;;;;;6.93;5.45;;;;;;;;;;5053240;28;20044;-70
2023/08/02 06:19:44;;;;;;;9.10;5.32;;;;;;;;;;5053278;28;20394;-71
2023/08/02 06:22:10;;;;;;;8.80;5.35;;;;;;;;;;5053464;28;20390;-70
2023/08/02 06:24:36;;;;;;;6.80;5.00;;;;;;;;;;5053183;28;20078;-70
2023/08/02 06:27:02;;;;;;;8.88;5.45;;;;;;;;;;5053257;28;20059;-71
2023/08/02 06:29:28;;;;;;;6.80;5.25;;;;;;;;;;5052963;28;20487;-72
2023/08/02 06:31:54;;;;;;;9.68;5.10;;;;;;;;;;5053244;28;20486;-70
2023/08/02 06:34:20;;;;;;;8.82;5.38;;;;;;;;;;5052590;28;20069;-70
2023/08/02 06:36:46;;;;;;;8.85;5.07;;;;;;;;;;5052317;28;20143;-70
2023/08/02 06:39:12;;;;;;;8.10;4.88;;;;;;;;;;5052417;28;20031;-70
2023/08/02 06:41:38;;;;;;;10.18;5.10;;;;;;;;;;5052048;28;20040;-70
2023/08/02 06:44:06;;;;;;;8.45;4.97;;;;;;;;;;5050036;28;20122;-70
2023/08/02 06:46:33;;;;;;;5.78;4.32;;;;;;;;;;5052127;28;20051;-71
2023/08/02 06:48:59;;;;;;;5.60;4.50;;;;;;;;;;5051104;28;20087;-71
2023/08/02 06:51:25;;;;;;;7.07;4.80;;;;;;;;;;5052955;28;20032;-71
2023/08/02 06:53:52;;;;;;;8.63;4.65;;;;;;;;;;5052717;28;20520;-71
2023/08/02 06:56:18;;;;;;;6.40;4.60;;;;;;;;;;5050898;28;20093;-70
2023/08/02 06:58:44;;;;;;;13.15;5.75;;;;;;;;;;5051892;28;20170;-71
2023/08/02 07:01:14;;;;;;;9.23;5.43;;;;;;;;;;5050943;28;20456;-70
2023/08/02 07:03:40;;;;;;;7.68;5.03;;;;;;;;;;5052038;28;20079;-72
2023/08/02 07:06:12;;;;;;;7.47;4.80;;;;;;;;;;5051513;28;20048;-70
2023/08/02 07:08:40;;;;;;;7.15;4.40;;;;;;;;;;5051184;28;20461;-70
2023/08/02 07:11:06;;;;;;;6.13;4.47;;;;;;;;;;5052230;28;20112;-70
2023/08/02 07:13:33;;;;;;;8.68;4.43;;;;;;;;;;5051892;28;20467;-71
2023/08/02 07:15:59;;;;;;;6.00;4.60;;;;;;;;;;5050425;28;20029;-70
2023/08/02 07:18:25;;;;;;;7.25;4.80;;;;;;;;;;5052388;28;20401;-71
2023/08/02 07:20:51;;;;;;;6.88;4.50;;;;;;;;;;5050763;28;20530;-70
2023/08/02 07:23:17;;;;;;;6.70;4.30;;;;;;;;;;5051780;28;20120;-70
2023/08/02 07:25:43;;;;;;;6.03;4.80;;;;;;;;;;5051796;28;20029;-71
2023/08/02 07:28:09;;;;;;;13.85;4.90;;;;;;;;;;5051913;28;20032;-70
2023/08/02 07:30:34;;;;;;;7.78;4.80;;;;;;;;;;5051633;28;20021;-69
2023/08/02 07:33:00;;;;;;;8.10;4.43;;;;;;;;;;5051822;28;20028;-70
2023/08/02 07:35:26;;;;;;;6.63;4.40;;;;;;;;;;5051293;28;20154;-72
2023/08/02 07:37:52;;;;;;;7.80;4.80;;;;;;;;;;5052022;28;20064;-70
2023/08/02 07:40:18;;;;;;;9.70;4.90;;;;;;;;;;5050943;28;20025;-72
2023/08/02 07:42:44;;;;;;;6.25;4.47;;;;;;;;;;5051516;28;20142;-72
2023/08/02 07:45:11;;;;;;;8.38;4.97;;;;;;;;;;5051193;28;20104;-72
2023/08/02 07:47:37;;;;;;;11.40;4.82;;;;;;;;;;5052020;28;20400;-73
2023/08/02 07:50:04;;;;;;;10.25;4.72;;;;;;;;;;5051575;28;20072;-72
2023/08/02 07:52:31;;;;;;;8.20;4.78;;;;;;;;;;5052010;28;20033;-71
2023/08/02 07:54:57;;;;;;;8.60;5.05;;;;;;;;;;5051260;28;20102;-71
2023/08/02 07:57:27;;;;;;;6.68;4.60;;;;;;;;;;5051715;28;20025;-71
2023/08/02 07:59:53;;;;;;;7.05;4.30;;;;;;;;;;5050141;28;20048;-70
2023/08/02 08:02:20;;;;;;;10.40;5.13;;;;;;;;;;5051425;28;20017;-71
2023/08/02 08:04:46;;;;;;;5.53;4.47;;;;;;;;;;5051566;28;20544;-71
2023/08/02 08:07:12;;;;;;;6.25;4.70;;;;;;;;;;5051829;28;20017;-71
2023/08/02 08:09:38;;;;;;;7.35;4.50;;;;;;;;;;5051570;28;20132;-71
2023/08/02 08:12:05;;;;;;;9.48;4.55;;;;;;;;;;5051238;28;20101;-70
2023/08/02 08:14:32;;;;;;;8.88;4.70;;;;;;;;;;5050292;28;20037;-72
2023/08/02 08:16:58;;;;;;;8.27;4.38;;;;;;;;;;5051542;28;20114;-71
2023/08/02 08:19:26;;;;;;;6.28;4.50;;;;;;;;;;5051493;28;20032;-70
2023/08/02 08:21:52;;;;;;;8.63;4.47;;;;;;;;;;5051537;28;20052;-70
2023/08/02 08:24:19;;;;;;;6.25;4.28;;;;;;;;;;5051140;28;20029;-71
2023/08/02 08:26:46;;;;;;;13.32;4.63;;;;;;;;;;5051025;28;20032;-72
2023/08/02 08:29:12;;;;;;;8.27;4.63;;;;;;;;;;5051151;28;20044;-72
2023/08/02 08:31:38;;;;;;;11.20;4.90;;;;;;;;;;5051446;28;20029;-72
2023/08/02 08:34:04;;;;;;;9.38;5.20;;;;;;;;;;5051717;28;20083;-71
2023/08/02 08:36:30;;;;;;;6.82;4.40;;;;;;;;;;5051088;28;20025;-71
2023/08/02 08:38:56;;;;;;;5.88;4.78;;;;;;;;;;5051070;28;20033;-71
2023/08/02 08:41:22;;;;;;;13.02;4.68;;;;;;;;;;5051016;28;20055;-70
2023/08/02 08:43:48;;;;;;;7.88;4.18;;;;;;;;;;5051267;28;20037;-71
2023/08/02 08:46:15;;;;;;;8.27;5.05;;;;;;;;;;5051074;28;20359;-71
2023/08/02 08:48:42;;;;;;;10.13;5.03;;;;;;;;;;5051145;28;20037;-71
2023/08/02 08:51:10;;;;;;;5.28;4.38;;;;;;;;;;5066237;28;20033;-71
2023/08/02 08:53:41;;;;;;;6.50;5.07;;;;;;;;;;5050970;28;20037;-70
2023/08/02 08:56:07;;;;;;;7.13;4.45;;;;;;;;;;5051399;28;20029;-71
2023/08/02 08:58:35;;;;;;;7.65;4.10;;;;;;;;;;5050985;28;20042;-71
2023/08/02 09:01:03;;;;;;;8.25;4.45;;;;;;;;;;5050727;28;20040;-71
2023/08/02 09:03:29;;;;;;;17.30;5.50;;;;;;;;;;5050693;28;20021;-71
2023/08/02 09:06:03;;;;;;;10.73;4.93;;;;;;;;;;5050111;28;20102;-71
2023/08/02 09:08:40;;;;;;;5.72;4.22;;;;;;;;;;5054586;28;20479;-71
2023/08/02 09:11:06;;;;;;;6.05;3.60;;;;;;;;;;5054368;28;20041;-71
2023/08/02 09:13:32;;;;;;;10.10;4.78;;;;;;;;;;5054557;28;20025;-70
2023/08/02 09:16:12;;;;;;;5.53;4.45;;;;;;;;;;5054386;28;20066;-70
2023/08/02 09:18:45;;;;;;;8.15;4.85;;;;;;;;;;5053240;28;20041;-71
2023/08/02 09:21:15;;;;;;;5.90;4.18;;;;;;;;;;5053195;28;20040;-70
2023/08/02 09:23:48;;;;;;;6.25;4.55;;;;;;;;;;5053958;28;20033;-70
2023/08/02 09:26:17;;;;;;;7.13;4.68;;;;;;;;;;5053975;28;20612;-71
2023/08/02 09:29:03;;;;;;;6.53;4.45;;;;;;;;;;5053684;28;20219;-71
2023/08/02 09:31:31;;;;;;;5.50;3.70;;;;;;;;;;5054200;28;20677;-71
2023/08/02 09:33:57;;;;;;;8.07;4.10;;;;;;;;;;5053726;28;20039;-71
2023/08/02 09:36:26;;;;;;;8.13;4.47;;;;;;;;;;5053588;28;20552;-71
2023/08/02 09:38:57;;;;;;;8.00;4.00;;;;;;;;;;5054211;28;20025;-70
2023/08/02 09:41:24;;;;;;;4.95;3.72;;;;;;;;;;5046509;28;20037;-70
2023/08/02 09:43:51;;;;;;;7.28;3.42;;;;;;;;;;5053199;28;20028;-71
2023/08/02 09:46:28;;;;;;;5.90;3.70;;;;;;;;;;5052262;28;20037;-70
2023/08/02 09:48:57;;;;;;;5.40;3.97;;;;;;;;;;5052931;28;20051;-71
2023/08/02 09:51:39;;;;;;;4.13;3.20;;;;;;;;;;5046263;28;20389;-71
2023/08/02 09:54:06;;;;;;;12.80;8.65;;;;;;;;;;5054270;28;20029;-71
2023/08/02 09:56:34;;;;;;;7.50;3.78;;;;;;;;;;5052967;28;20077;-70
2023/08/02 09:59:01;;;;;;;7.45;4.10;;;;;;;;;;5053963;28;20028;-70
2023/08/02 10:01:29;;;;;;;8.60;4.85;;;;;;;;;;5053668;28;20071;-70
2023/08/02 10:03:58;;;;;;;7.22;4.97;;;;;;;;;;5053723;28;20025;-70
2023/08/02 10:06:44;;;;;;;6.53;4.68;;;;;;;;;;5053826;28;20028;-71
2023/08/02 10:09:13;;;;;;;8.30;4.25;;;;;;;;;;5053898;28;20043;-68
2023/08/02 10:11:45;;;;;;;14.45;3.70;;;;;;;;;;5053881;28;20028;-71
2023/08/02 10:14:12;;;;;;;7.95;3.78;;;;;;;;;;5053720;28;20036;-69
2023/08/02 10:16:40;;;;;;;4.43;3.58;;;;;;;;;;5052214;28;20044;-70
2023/08/02 10:19:06;;;;;;;7.10;3.67;;;;;;;;;;5053288;28;20056;-71
2023/08/02 10:21:34;;;;;;;6.43;3.85;;;;;;;;;;5053081;28;20029;-70
2023/08/02 10:24:00;;;;;;;9.23;4.00;;;;;;;;;;5051390;28;20125;-68
2023/08/02 10:26:29;;;;;;;10.57;4.30;;;;;;;;;;5053939;28;20064;-70
2023/08/02 10:28:57;;;;;;;8.85;3.80;;;;;;;;;;5053171;28;20024;-70
2023/08/02 10:31:23;;;;;;;8.13;3.95;;;;;;;;;;5052913;28;20098;-70
2023/08/02 10:33:49;;;;;;;8.88;3.75;;;;;;;;;;5052677;28;20029;-70
2023/08/02 10:36:15;;;;;;;7.03;3.92;;;;;;;;;;5052939;28;20484;-70
2023/08/02 10:38:47;;;;;;;4.00;3.30;;;;;;;;;;5053168;28;20037;-70
2023/08/02 10:41:17;;;;;;;5.97;3.75;;;;;;;;;;5053049;28;20036;-72
2023/08/02 10:44:00;;;;;;;6.47;3.70;;;;;;;;;;5052540;28;20037;-72
2023/08/02 10:46:28;;;;;;;8.00;3.42;;;;;;;;;;5052804;28;20041;-72
2023/08/02 10:49:15;;;;;;;5.22;3.00;;;;;;;;;;5053028;28;20129;-71
2023/08/02 10:51:43;;;;;;;6.32;3.38;;;;;;;;;;5052800;28;20029;-71
2023/08/02 10:54:25;;;;;;;4.72;2.92;;;;;;;;;;5052542;28;20032;-69
2023/08/02 10:56:51;;;;;;;4.20;2.92;;;;;;;;;;5051423;28;20391;-70
2023/08/02 10:59:18;;;;;;;4.60;3.15;;;;;;;;;;5052781;28;20025;-71
2023/08/02 11:01:56;;;;;;;6.05;3.40;;;;;;;;;;5052598;28;20098;-70
2023/08/02 11:04:24;;;;;;;5.75;3.25;;;;;;;;;;5052420;28;20048;-72
2023/08/02 11:06:50;;;;;;;5.10;3.33;;;;;;;;;;5052574;28;20025;-72
2023/08/02 11:09:16;;;;;;;3.97;3.47;;;;;;;;;;5052622;28;20118;-71
2023/08/02 11:11:42;;;;;;;9.88;3.67;;;;;;;;;;5051407;28;20449;-72
2023/08/02 11:14:08;;;;;;;4.35;3.13;;;;;;;;;;5052338;28;20441;-71
2023/08/02 11:16:43;;;;;;;7.43;2.92;;;;;;;;;;5052352;28;20024;-71
2023/08/02 11:19:10;;;;;;;4.25;2.97;;;;;;;;;;5052516;28;20090;-71
2023/08/02 11:21:37;;;;;;;6.47;2.90;;;;;;;;;;5052315;28;20136;-71
2023/08/02 11:24:03;;;;;;;6.13;3.38;;;;;;;;;;5051805;28;20048;-71
2023/08/02 11:26:30;;;;;;;5.43;2.90;;;;;;;;;;5052170;28;20028;-71
2023/08/02 11:28:56;;;;;;;6.32;3.13;;;;;;;;;;5051879;28;20028;-71
2023/08/02 11:31:24;;;;;;;5.30;3.20;;;;;;;;;;5052176;28;20025;-71
2023/08/02 11:33:50;;;;;;;6.82;3.17;;;;;;;;;;5051127;28;20027;-71
2023/08/02 11:36:16;;;;;;;4.85;2.88;;;;;;;;;;5051786;28;20382;-70
2023/08/02 11:38:42;;;;;;;5.13;2.20;;;;;;;;;;5051826;28;20041;-71
2023/08/02 11:41:17;;;;;;;6.88;2.60;;;;;;;;;;5052014;28;20039;-71
2023/08/02 11:43:44;;;;;;;5.40;2.60;;;;;;;;;;5050517;28;20115;-71
2023/08/02 11:46:25;;;;;;;4.40;2.72;;;;;;;;;;5051977;28;20082;-71
2023/08/02 11:48:53;;;;;;;3.90;2.72;;;;;;;;;;5051547;28;20503;-71
2023/08/02 11:51:22;;;;;;;5.90;2.90;;;;;;;;;;5051895;28;20048;-71
2023/08/02 11:53:57;;;;;;;5.35;2.88;;;;;;;;;;5051345;28;20052;-72
2023/08/02 11:56:24;;;;;;;5.15;2.70;;;;;;;;;;5051289;28;20036;-71
2023/08/02 11:58:51;;;;;;;3.80;2.72;;;;;;;;;;5051730;28;20124;-72
2023/08/02 12:01:19;;;;;;;6.00;2.83;;;;;;;;;;5052212;28;20079;-72
2023/08/02 12:04:03;;;;;;;4.72;2.80;;;;;;;;;;5050376;28;20438;-69
2023/08/02 12:06:45;;;;;;;7.00;2.67;;;;;;;;;;5051927;28;20083;-72
2023/08/02 12:09:12;;;;;;;;;;;;;;;;;;5051886;28;20052;-71
2023/08/02 12:11:38;;;;;;;3.55;2.50;;;;;;;;;;5050187;28;20343;-72
2023/08/02 12:14:06;;;;;;;4.10;2.40;;;;;;;;;;5051008;28;20120;-71
2023/08/02 12:16:42;;;;;;;4.53;2.10;;;;;;;;;;5051743;28;20017;-70
2023/08/02 12:19:10;;;;;;;3.80;2.30;;;;;;;;;;5051321;28;20037;-71
2023/08/02 12:21:37;;;;;;;6.32;2.25;;;;;;;;;;5050934;28;20029;-70
2023/08/02 12:24:14;;;;;;;3.83;2.50;;;;;;;;;;5049744;28;20120;-71
2023/08/02 12:26:40;;;;;;;3.20;2.10;;;;;;;;;;5050539;28;20044;-71
2023/08/02 12:29:06;;;;;;;4.28;2.05;;;;;;;;;;5049546;28;20033;-71
2023/08/02 12:31:48;;;;;;;3.03;2.00;;;;;;;;;;5049737;28;20147;-71
2023/08/02 12:34:14;;;;;;;7.43;2.20;;;;;;;;;;5049709;28;20036;-71
2023/08/02 12:36:39;;;;;;;3.40;2.33;;;;;;;;;;5050700;28;20418;-71
2023/08/02 12:39:05;;;;;;;5.03;2.38;;;;;;;;;;5049601;28;20041;-70
2023/08/02 12:41:31;;;;;;;4.45;2.40;;;;;;;;;;5052476;28;20037;-72
2023/08/02 12:43:57;;;;;;;6.32;3.00;;;;;;;;;;5054524;28;20514;-71
2023/08/02 12:46:23;;;;;;;3.80;2.10;;;;;;;;;;5052753;28;20064;-71
2023/08/02 12:48:50;;;;;;;4.43;2.33;;;;;;;;;;5054806;28;20033;-71
2023/08/02 12:51:16;;;;;;;5.22;2.35;;;;;;;;;;5054595;28;20027;-71
2023/08/02 12:53:42;;;;;;;5.15;2.00;;;;;;;;;;5053743;28;20158;-72
2023/08/02 12:56:08;;;;;;;3.80;2.28;;;;;;;;;;5054637;28;20017;-72
2023/08/02 12:58:34;;;;;;;5.43;2.25;;;;;;;;;;5053209;28;20036;-70
2023/08/02 13:01:00;;;;;;;4.50;2.63;;;;;;;;;;5054297;28;20151;-72
2023/08/02 13:03:26;;;;;;;5.43;2.50;;;;;;;;;;5053969;28;20033;-71
2023/08/02 13:05:51;;;;;;;5.63;2.83;;;;;;;;;;5054491;28;20021;-71
2023/08/02 13:08:18;;;;;;;2.80;2.13;;;;;;;;;;5054717;28;20057;-71
2023/08/02 13:10:44;;;;;;;3.13;2.25;;;;;;;;;;5054475;28;20547;-72
2023/08/02 13:13:10;;;;;;;5.53;2.50;;;;;;;;;;5054009;28;20029;-72
2023/08/02 13:15:36;;;;;;;3.63;2.10;;;;;;;;;;5053894;28;20137;-71
2023/08/02 13:18:02;;;;;;;4.70;2.10;;;;;;;;;;5054802;28;20478;-72
2023/08/02 13:20:27;;;;;;;5.10;2.20;;;;;;;;;;5052416;28;20024;-71
2023/08/02 13:22:54;;;;;;;6.28;2.95;;;;;;;;;;5053830;28;20033;-71
2023/08/02 13:25:20;;;;;;;3.15;2.05;;;;;;;;;;5053449;28;20028;-72
2023/08/02 13:27:46;;;;;;;3.33;2.40;;;;;;;;;;5054410;28;20032;-71
2023/08/02 13:30:12;;;;;;;5.35;2.33;;;;;;;;;;5054253;28;20021;-71
2023/08/02 13:32:38;;;;;;;4.05;2.20;;;;;;;;;;5053729;28;20033;-71
2023/08/02 13:35:05;;;;;;;4.03;2.10;;;;;;;;;;5051767;28;20105;-71
2023/08/02 13:37:34;;;;;;;4.28;2.03;;;;;;;;;;5052159;28;20498;-71
2023/08/02 13:40:01;;;;;;;4.13;2.20;;;;;;;;;;5051804;28;20045;-72
2023/08/02 13:42:27;;;;;;;2.90;1.83;;;;;;;;;;5051793;28;20029;-72
2023/08/02 13:44:56;;;;;;;4.35;3.17;;;;;;;;;;5053413;28;20037;-71
2023/08/02 13:47:22;;;;;;;3.63;2.10;;;;;;;;;;5050286;28;20032;-71
2023/08/02 13:49:48;;;;;;;3.28;2.00;;;;;;;;;;5051623;28;20041;-73
2023/08/02 13:52:14;;;;;;;5.40;2.00;;;;;;;;;;5051128;28;20407;-70
2023/08/02 13:54:40;;;;;;;4.57;2.58;;;;;;;;;;5044889;28;20032;-71
2023/08/02 13:57:06;;;;;;;5.82;2.00;;;;;;;;;;5033264;28;20036;-70
2023/08/02 13:59:32;;;;;;;4.13;1.90;;;;;;;;;;5032003;28;20056;-71
2023/08/02 14:01:57;;;;;;;3.50;2.13;;;;;;;;;;5033218;28;20029;-70
2023/08/02 14:04:23;;;;;;;5.15;2.45;;;;;;;;;;5032546;28;20394;-72
2023/08/02 14:06:49;;;;;;;4.85;1.75;;;;;;;;;;5033330;28;20057;-71
2023/08/02 14:09:15;;;;;;;5.68;2.50;;;;;;;;;;5033389;28;20064;-71
2023/08/02 14:11:41;;;;;;;3.72;2.08;;;;;;;;;;5032926;28;20068;-71
2023/08/02 14:14:08;;;;;;;5.47;2.17;;;;;;;;;;5031934;28;20036;-70
2023/08/02 14:16:37;;;;;;;4.25;2.05;;;;;;;;;;5040646;28;20025;-71
2023/08/02 14:19:03;;;;;;;3.13;1.88;;;;;;;;;;5051326;28;20055;-71
2023/08/02 14:21:30;;;;;;;3.72;1.90;;;;;;;;;;5052353;28;20025;-71
2023/08/02 14:23:56;;;;;;;3.40;2.78;;;;;;;;;;5050327;28;20033;-72
2023/08/02 14:26:24;;;;;;;4.40;3.03;;;;;;;;;;5052648;28;20033;-71
2023/08/02 14:28:50;;;;;;;5.50;3.00;;;;;;;;;;5053562;28;20029;-71
2023/08/02 14:31:16;;;;;;;4.43;3.10;;;;;;;;;;5052161;28;20032;-71
2023/08/02 14:33:42;;;;;;;7.43;3.08;;;;;;;;;;5050675;28;20033;-73
2023/08/02 14:36:08;;;;;;;5.63;3.00;;;;;;;;;;5053379;28;20032;-72
2023/08/02 14:38:34;;;;;;;4.50;2.83;;;;;;;;;;5053515;28;20036;-70
2023/08/02 14:41:00;;;;;;;6.65;3.47;;;;;;;;;;5053502;28;20204;-71